sensor_id;sensor_type;location;lat;lon;timestamp;pressure;altitude;pressure_sealevel;temperature;humidity
23131;BME280;11734;51.046;13.778;2022-09-24T00:01:42;69960.72;;;10.36;100.00
23131;BME280;11734;51.046;13.778;2022-09-24T00:04:11;69946.06;;;10.37;100.00
23131;BME280;11734;51.046;13.778;2022-09-24T00:06:43;70017.03;;;10.39;100.00
23131;BME280;11734;51.046;13.778;2022-09-24T00:09:13;70007.09;;;10.35;100.00
23131;BME280;11734;51.046;13.778;2022-09-24T00:11:42;69996.22;;;10.37;100.00
23131;BME280;11734;51.046;13.778;2022-09-24T00:14:12;134984.63;;;10.34;100.00
23131;BME280;11734;51.046;13.778;2022-09-24T00:16:41;69978.94;;;10.33;100.00
23131;BME280;11734;51.046;13.778;2022-09-24T00:19:11;69958.97;;;10.34;100.00
23131;BME280;11734;51.046;13.778;2022-09-24T00:21:39;69992.44;;;10.31;100.00
23131;BME280;11734;51.046;13.778;2022-09-24T00:24:17;69974.56;;;10.27;100.00
23131;BME280;11734;51.046;13.778;2022-09-24T00:27:04;69997.75;;;10.27;100.00
23131;BME280;11734;51.046;13.778;2022-09-24T00:29:32;69977.78;;;10.28;100.00
23131;BME280;11734;51.046;13.778;2022-09-24T00:32:02;69953.19;;;10.25;100.00
23131;BME280;11734;51.046;13.778;2022-09-24T00:34:30;69933.84;;;10.22;100.00
23131;BME280;11734;51.046;13.778;2022-09-24T00:36:58;69979.56;;;10.25;100.00
23131;BME280;11734;51.046;13.778;2022-09-24T00:39:25;69998.38;;;10.23;100.00
23131;BME280;11734;51.046;13.778;2022-09-24T00:41:53;69927.38;;;10.25;100.00
23131;BME280;11734;51.046;13.778;2022-09-24T00:47:25;69937.06;;;10.22;100.00
23131;BME280;11734;51.046;13.778;2022-09-24T00:50:16;69955.53;;;10.22;100.00
23131;BME280;11734;51.046;13.778;2022-09-24T00:55:21;69917.16;;;10.19;100.00
23131;BME280;11734;51.046;13.778;2022-09-24T00:57:56;69938.28;;;10.14;100.00
23131;BME280;11734;51.046;13.778;2022-09-24T01:00:25;69946.75;;;10.19;100.00
23131;BME280;11734;51.046;13.778;2022-09-24T01:03:00;69944.09;;;10.24;100.00
23131;BME280;11734;51.046;13.778;2022-09-24T01:05:28;69940.28;;;10.23;100.00
23131;BME280;11734;51.046;13.778;2022-09-24T01:07:56;69953.53;;;10.18;100.00
23131;BME280;11734;51.046;13.778;2022-09-24T01:14:01;69946.84;;;10.01;100.00
23131;BME280;11734;51.046;13.778;2022-09-24T01:16:42;69951.25;;;10.03;100.00
23131;BME280;11734;51.046;13.778;2022-09-24T01:22:24;69908.75;;;10.00;100.00
23131;BME280;11734;51.046;13.778;2022-09-24T01:25:00;69978.25;;;9.99;100.00
23131;BME280;11734;51.046;13.778;2022-09-24T01:30:08;69937.50;;;9.98;100.00
23131;BME280;11734;51.046;13.778;2022-09-24T01:32:52;69937.78;;;9.95;100.00
23131;BME280;11734;51.046;13.778;2022-09-24T01:38:04;69949.81;;;9.99;100.00
23131;BME280;11734;51.046;13.778;2022-09-24T01:40:33;69883.25;;;9.99;100.00
23131;BME280;11734;51.046;13.778;2022-09-24T01:43:04;69941.59;;;10.01;100.00
23131;BME280;11734;51.046;13.778;2022-09-24T01:45:35;69937.16;;;10.04;100.00
23131;BME280;11734;51.046;13.778;2022-09-24T01:48:05;69933.66;;;10.01;100.00
23131;BME280;11734;51.046;13.778;2022-09-24T01:50:45;69924.91;;;9.98;100.00
23131;BME280;11734;51.046;13.778;2022-09-24T01:53:17;69936.91;;;9.97;100.00
23131;BME280;11734;51.046;13.778;2022-09-24T01:55:48;69947.78;;;9.95;100.00
23131;BME280;11734;51.046;13.778;2022-09-24T01:58:28;69913.81;;;9.88;100.00
23131;BME280;11734;51.046;13.778;2022-09-24T02:01:04;69923.50;;;9.85;100.00
23131;BME280;11734;51.046;13.778;2022-09-24T02:03:38;69921.75;;;9.84;100.00
23131;BME280;11734;51.046;13.778;2022-09-24T02:06:19;69893.63;;;9.82;100.00
23131;BME280;11734;51.046;13.778;2022-09-24T02:08:50;69954.59;;;9.80;100.00
23131;BME280;11734;51.046;13.778;2022-09-24T02:11:22;69900.06;;;9.83;100.00
23131;BME280;11734;51.046;13.778;2022-09-24T02:14:08;69883.66;;;9.83;100.00
23131;BME280;11734;51.046;13.778;2022-09-24T02:16:45;69901.84;;;9.80;100.00
23131;BME280;11734;51.046;13.778;2022-09-24T02:19:18;69900.09;;;9.79;100.00
23131;BME280;11734;51.046;13.778;2022-09-24T02:21:47;69866.13;;;9.72;100.00
23131;BME280;11734;51.046;13.778;2022-09-24T02:24:16;69915.13;;;9.67;100.00
23131;BME280;11734;51.046;13.778;2022-09-24T02:26:45;69872.72;;;9.55;100.00
23131;BME280;11734;51.046;13.778;2022-09-24T02:29:13;69854.00;;;9.48;100.00
23131;BME280;11734;51.046;13.778;2022-09-24T02:31:45;69837.56;;;9.52;100.00
23131;BME280;11734;51.046;13.778;2022-09-24T02:34:23;69838.19;;;9.48;100.00
23131;BME280;11734;51.046;13.778;2022-09-24T02:36:56;69831.75;;;9.47;100.00
23131;BME280;11734;51.046;13.778;2022-09-24T02:39:25;69826.56;;;9.29;100.00
23131;BME280;11734;51.046;13.778;2022-09-24T02:41:53;69806.06;;;9.34;100.00
23131;BME280;11734;51.046;13.778;2022-09-24T02:44:21;69858.09;;;9.47;100.00
23131;BME280;11734;51.046;13.778;2022-09-24T02:46:48;69904.97;;;9.51;100.00
23131;BME280;11734;51.046;13.778;2022-09-24T02:49:17;69885.66;;;9.48;100.00
23131;BME280;11734;51.046;13.778;2022-09-24T02:51:44;69876.81;;;9.54;100.00
23131;BME280;11734;51.046;13.778;2022-09-24T02:54:11;69872.72;;;9.55;100.00
23131;BME280;11734;51.046;13.778;2022-09-24T02:56:39;69866.25;;;9.54;100.00
23131;BME280;11734;51.046;13.778;2022-09-24T02:59:07;69892.63;;;9.54;100.00
23131;BME280;11734;51.046;13.778;2022-09-24T03:01:34;69881.22;;;9.51;100.00
23131;BME280;11734;51.046;13.778;2022-09-24T03:04:02;69875.13;;;9.43;100.00
23131;BME280;11734;51.046;13.778;2022-09-24T03:06:32;69858.09;;;9.47;100.00
23131;BME280;11734;51.046;13.778;2022-09-24T03:09:00;69848.72;;;9.48;100.00
23131;BME280;11734;51.046;13.778;2022-09-24T03:11:29;69869.88;;;9.39;100.00
23131;BME280;11734;51.046;13.778;2022-09-24T03:13:58;69826.31;;;9.26;100.00
23131;BME280;11734;51.046;13.778;2022-09-24T03:16:27;69816.84;;;9.41;100.00
23131;BME280;11734;51.046;13.778;2022-09-24T03:18:54;69808.38;;;9.36;100.00
23131;BME280;11734;51.046;13.778;2022-09-24T03:21:22;69816.03;;;9.29;100.00
23131;BME280;11734;51.046;13.778;2022-09-24T03:23:50;69896.25;;;9.34;100.00
23131;BME280;11734;51.046;13.778;2022-09-24T03:26:17;69825.34;;;9.37;100.00
23131;BME280;11734;51.046;13.778;2022-09-24T03:28:45;69850.25;;;9.38;100.00
23131;BME280;11734;51.046;13.778;2022-09-24T03:31:12;69852.31;;;9.33;100.00
23131;BME280;11734;51.046;13.778;2022-09-24T03:33:47;69834.91;;;9.09;100.00
23131;BME280;11734;51.046;13.778;2022-09-24T03:36:24;69845.00;;;9.33;100.00
23131;BME280;11734;51.046;13.778;2022-09-24T03:38:56;69837.69;;;9.34;100.00
23131;BME280;11734;51.046;13.778;2022-09-24T03:41:25;69827.16;;;9.29;100.00
23131;BME280;11734;51.046;13.778;2022-09-24T03:43:54;69816.03;;;9.29;100.00
23131;BME280;11734;51.046;13.778;2022-09-24T03:46:22;69803.16;;;9.27;100.00
23131;BME280;11734;51.046;13.778;2022-09-24T03:48:56;69801.44;;;9.21;100.00
23131;BME280;11734;51.046;13.778;2022-09-24T03:51:27;69795.09;;;9.06;100.00
23131;BME280;11734;51.046;13.778;2022-09-24T03:53:55;69846.28;;;9.16;100.00
23131;BME280;11734;51.046;13.778;2022-09-24T03:56:22;69810.25;;;9.19;100.00
23131;BME280;11734;51.046;13.778;2022-09-24T03:58:49;69874.09;;;9.20;100.00
23131;BME280;11734;51.046;13.778;2022-09-24T04:01:16;69807.31;;;9.17;100.00
23131;BME280;11734;51.046;13.778;2022-09-24T04:03:49;69791.38;;;8.96;100.00
23131;BME280;11734;51.046;13.778;2022-09-24T04:06:16;69786.84;;;9.13;100.00
23131;BME280;11734;51.046;13.778;2022-09-24T04:08:51;69848.06;;;9.09;100.00
23131;BME280;11734;51.046;13.778;2022-09-24T04:11:18;69804.50;;;9.01;100.00
23131;BME280;11734;51.046;13.778;2022-09-24T04:13:46;69817.72;;;8.96;100.00
23131;BME280;11734;51.046;13.778;2022-09-24T04:16:13;69763.63;;;8.83;100.00
23131;BME280;11734;51.046;13.778;2022-09-24T04:18:40;69797.50;;;8.94;100.00
23131;BME280;11734;51.046;13.778;2022-09-24T04:21:08;69802.22;;;8.89;100.00
23131;BME280;11734;51.046;13.778;2022-09-24T04:23:35;69820.94;;;8.96;100.00
23131;BME280;11734;51.046;13.778;2022-09-24T04:26:02;69784.09;;;8.87;100.00
23131;BME280;11734;51.046;13.778;2022-09-24T04:28:30;69774.19;;;8.79;100.00
23131;BME280;11734;51.046;13.778;2022-09-24T04:30:58;69750.22;;;8.76;100.00
23131;BME280;11734;51.046;13.778;2022-09-24T04:33:25;69776.63;;;8.63;100.00
23131;BME280;11734;51.046;13.778;2022-09-24T04:35:52;69770.47;;;8.69;100.00
23131;BME280;11734;51.046;13.778;2022-09-24T04:38:19;69807.72;;;8.48;100.00
23131;BME280;11734;51.046;13.778;2022-09-24T04:40:47;69732.50;;;8.54;100.00
23131;BME280;11734;51.046;13.778;2022-09-24T04:43:14;69769.56;;;8.70;100.00
23131;BME280;11734;51.046;13.778;2022-09-24T04:45:43;69746.16;;;8.68;100.00
23131;BME280;11734;51.046;13.778;2022-09-24T04:48:12;69785.97;;;8.66;100.00
23131;BME280;11734;51.046;13.778;2022-09-24T04:50:39;69752.06;;;8.60;100.00
23131;BME280;11734;51.046;13.778;2022-09-24T04:53:12;69729.84;;;8.54;100.00
23131;BME280;11734;51.046;13.778;2022-09-24T04:55:40;69754.38;;;8.66;100.00
23131;BME280;11734;51.046;13.778;2022-09-24T04:58:08;69725.16;;;8.59;100.00
23131;BME280;11734;51.046;13.778;2022-09-24T05:00:36;69797.72;;;8.53;100.00
23131;BME280;11734;51.046;13.778;2022-09-24T05:03:04;69733.66;;;8.55;100.00
23131;BME280;11734;51.046;13.778;2022-09-24T05:05:32;69763.47;;;8.58;100.00
23131;BME280;11734;51.046;13.778;2022-09-24T05:08:00;69746.81;;;8.55;100.00
23131;BME280;11734;51.046;13.778;2022-09-24T05:10:29;69748.34;;;8.45;100.00
23131;BME280;11734;51.046;13.778;2022-09-24T05:13:00;69742.09;;;8.65;100.00
23131;BME280;11734;51.046;13.778;2022-09-24T05:15:30;69760.84;;;8.58;100.00
23131;BME280;11734;51.046;13.778;2022-09-24T05:17:57;69763.72;;;8.65;100.00
23131;BME280;11734;51.046;13.778;2022-09-24T05:20:25;69727.44;;;8.66;100.00
23131;BME280;11734;51.046;13.778;2022-09-24T05:22:52;69761.38;;;8.68;100.00
23131;BME280;11734;51.046;13.778;2022-09-24T05:25:21;69750.31;;;8.58;100.00
23131;BME280;11734;51.046;13.778;2022-09-24T05:27:51;69777.09;;;8.81;100.00
23131;BME280;11734;51.046;13.778;2022-09-24T05:30:22;69770.38;;;8.78;100.00
23131;BME280;11734;51.046;13.778;2022-09-24T05:32:50;69760.63;;;8.94;100.00
23131;BME280;11734;51.046;13.778;2022-09-24T05:35:22;69783.47;;;8.96;100.00
23131;BME280;11734;51.046;13.778;2022-09-24T05:37:50;69754.81;;;8.89;100.00
23131;BME280;11734;51.046;13.778;2022-09-24T05:40:20;69830.25;;;9.05;100.00
23131;BME280;11734;51.046;13.778;2022-09-24T05:43:07;69794.59;;;8.96;100.00
23131;BME280;11734;51.046;13.778;2022-09-24T05:45:34;69792.41;;;9.15;100.00
23131;BME280;11734;51.046;13.778;2022-09-24T05:48:01;69836.38;;;9.08;100.00
23131;BME280;11734;51.046;13.778;2022-09-24T05:50:28;69858.22;;;9.29;100.00
23131;BME280;11734;51.046;13.778;2022-09-24T05:52:55;69846.81;;;9.26;100.00
23131;BME280;11734;51.046;13.778;2022-09-24T05:55:23;69786.59;;;9.10;100.00
23131;BME280;11734;51.046;13.778;2022-09-24T05:58:04;69862.81;;;9.42;100.00
23131;BME280;11734;51.046;13.778;2022-09-24T06:00:33;69835.09;;;9.25;100.00
23131;BME280;11734;51.046;13.778;2022-09-24T06:03:10;69829.41;;;9.45;100.00
23131;BME280;11734;51.046;13.778;2022-09-24T06:05:48;69837.94;;;9.41;100.00
23131;BME280;11734;51.046;13.778;2022-09-24T06:08:18;69881.47;;;9.58;100.00
23131;BME280;11734;51.046;13.778;2022-09-24T06:10:46;69904.88;;;9.60;100.00
23131;BME280;11734;51.046;13.778;2022-09-24T06:13:18;69898.50;;;9.50;100.00
23131;BME280;11734;51.046;13.778;2022-09-24T06:15:46;69878.50;;;9.65;100.00
23131;BME280;11734;51.046;13.778;2022-09-24T06:18:14;69887.34;;;9.54;100.00
23131;BME280;11734;51.046;13.778;2022-09-24T06:20:41;69908.94;;;9.68;100.00
23131;BME280;11734;51.046;13.778;2022-09-24T06:23:08;69913.88;;;9.79;100.00
23131;BME280;11734;51.046;13.778;2022-09-24T06:25:35;69901.22;;;9.84;100.00
23131;BME280;11734;51.046;13.778;2022-09-24T06:28:03;69925.56;;;9.80;100.00
23131;BME280;11734;51.046;13.778;2022-09-24T06:30:36;69967.34;;;10.05;100.00
23131;BME280;11734;51.046;13.778;2022-09-24T06:33:10;69926.88;;;10.07;100.00
23131;BME280;11734;51.046;13.778;2022-09-24T06:35:40;69955.94;;;10.02;100.00
23131;BME280;11734;51.046;13.778;2022-09-24T06:38:11;69930.34;;;10.14;100.00
23131;BME280;11734;51.046;13.778;2022-09-24T06:40:39;69962.63;;;10.15;100.00
23131;BME280;11734;51.046;13.778;2022-09-24T06:43:09;69963.75;;;10.20;100.00
23131;BME280;11734;51.046;13.778;2022-09-24T06:45:36;69953.78;;;10.21;100.00
23131;BME280;11734;51.046;13.778;2022-09-24T06:48:05;69949.09;;;10.21;100.00
23131;BME280;11734;51.046;13.778;2022-09-24T06:50:34;69939.81;;;10.00;100.00
23131;BME280;11734;51.046;13.778;2022-09-24T06:53:05;69955.44;;;10.36;100.00
23131;BME280;11734;51.046;13.778;2022-09-24T06:55:34;70003.53;;;10.41;100.00
23131;BME280;11734;51.046;13.778;2022-09-24T06:58:10;70023.38;;;10.58;100.00
23131;BME280;11734;51.046;13.778;2022-09-24T07:00:37;70038.03;;;10.62;100.00
23131;BME280;11734;51.046;13.778;2022-09-24T07:03:06;70021.22;;;10.72;100.00
23131;BME280;11734;51.046;13.778;2022-09-24T07:05:34;70019.09;;;10.82;100.00
23131;BME280;11734;51.046;13.778;2022-09-24T07:08:08;70020.53;;;10.85;100.00
23131;BME280;11734;51.046;13.778;2022-09-24T07:10:35;70070.66;;;10.95;100.00
23131;BME280;11734;51.046;13.778;2022-09-24T07:13:03;70089.50;;;10.93;100.00
23131;BME280;11734;51.046;13.778;2022-09-24T07:15:30;70061.25;;;11.00;100.00
23131;BME280;11734;51.046;13.778;2022-09-24T07:17:57;70053.34;;;10.96;100.00
23131;BME280;11734;51.046;13.778;2022-09-24T07:20:24;70101.66;;;11.17;100.00
23131;BME280;11734;51.046;13.778;2022-09-24T07:22:54;70129.63;;;11.50;100.00
23131;BME280;11734;51.046;13.778;2022-09-24T07:25:22;70173.09;;;11.56;100.00
23131;BME280;11734;51.046;13.778;2022-09-24T07:27:49;70194.72;;;11.74;100.00
23131;BME280;11734;51.046;13.778;2022-09-24T07:30:17;70181.16;;;11.81;100.00
23131;BME280;11734;51.046;13.778;2022-09-24T07:32:44;70208.81;;;11.77;100.00
23131;BME280;11734;51.046;13.778;2022-09-24T07:35:11;70216.94;;;11.94;100.00
23131;BME280;11734;51.046;13.778;2022-09-24T07:37:38;70219.84;;;12.01;100.00
23131;BME280;11734;51.046;13.778;2022-09-24T07:40:06;70224.13;;;12.16;100.00
23131;BME280;11734;51.046;13.778;2022-09-24T07:42:33;70226.84;;;12.07;100.00
23131;BME280;11734;51.046;13.778;2022-09-24T07:45:00;70224.38;;;12.23;100.00
23131;BME280;11734;51.046;13.778;2022-09-24T07:47:27;70249.81;;;12.43;100.00
23131;BME280;11734;51.046;13.778;2022-09-24T07:49:54;70234.84;;;12.37;100.00
23131;BME280;11734;51.046;13.778;2022-09-24T07:52:21;70305.66;;;12.54;100.00
23131;BME280;11734;51.046;13.778;2022-09-24T07:54:48;70304.03;;;12.73;100.00
23131;BME280;11734;51.046;13.778;2022-09-24T07:57:17;70311.91;;;12.83;100.00
23131;BME280;11734;51.046;13.778;2022-09-24T07:59:44;70330.34;;;12.96;100.00
23131;BME280;11734;51.046;13.778;2022-09-24T08:02:16;70337.09;;;13.00;100.00
23131;BME280;11734;51.046;13.778;2022-09-24T08:04:45;70337.03;;;13.09;100.00
23131;BME280;11734;51.046;13.778;2022-09-24T08:07:12;70378.06;;;13.01;100.00
23131;BME280;11734;51.046;13.778;2022-09-24T08:09:40;70422.38;;;13.28;100.00
23131;BME280;11734;51.046;13.778;2022-09-24T08:12:07;70396.94;;;13.38;99.17
23131;BME280;11734;51.046;13.778;2022-09-24T08:14:35;70421.91;;;13.48;99.98
23131;BME280;11734;51.046;13.778;2022-09-24T08:17:02;70425.97;;;13.56;99.77
23131;BME280;11734;51.046;13.778;2022-09-24T08:19:29;70461.28;;;13.63;98.53
23131;BME280;11734;51.046;13.778;2022-09-24T08:21:57;70472.41;;;13.78;98.83
23131;BME280;11734;51.046;13.778;2022-09-24T08:24:24;70478.25;;;13.83;98.72
23131;BME280;11734;51.046;13.778;2022-09-24T08:26:51;70512.88;;;14.08;97.46
23131;BME280;11734;51.046;13.778;2022-09-24T08:29:18;70524.59;;;14.18;96.25
23131;BME280;11734;51.046;13.778;2022-09-24T08:31:46;70507.44;;;14.22;94.75
23131;BME280;11734;51.046;13.778;2022-09-24T08:34:13;70577.56;;;14.41;92.94
23131;BME280;11734;51.046;13.778;2022-09-24T08:36:40;70589.44;;;14.67;92.16
23131;BME280;11734;51.046;13.778;2022-09-24T08:39:09;70618.09;;;14.67;90.97
23131;BME280;11734;51.046;13.778;2022-09-24T08:41:52;70588.78;;;14.76;91.67
23131;BME280;11734;51.046;13.778;2022-09-24T08:44:42;70575.78;;;14.74;92.03
23131;BME280;11734;51.046;13.778;2022-09-24T08:48:15;70649.81;;;14.89;90.95
23131;BME280;11734;51.046;13.778;2022-09-24T08:50:57;70665.38;;;15.05;91.52
23131;BME280;11734;51.046;13.778;2022-09-24T08:53:53;70661.44;;;15.13;91.89
23131;BME280;11734;51.046;13.778;2022-09-24T08:56:34;70764.38;;;15.83;88.11
23131;BME280;11734;51.046;13.778;2022-09-24T08:59:25;70948.81;;;16.91;82.67
23131;BME280;11734;51.046;13.778;2022-09-24T09:02:20;71108.03;;;18.05;78.09
23131;BME280;11734;51.046;13.778;2022-09-24T09:05:22;71292.56;;;19.34;69.24
23131;BME280;11734;51.046;13.778;2022-09-24T09:08:07;71398.31;;;19.90;65.47
23131;BME280;11734;51.046;13.778;2022-09-24T09:11:00;71499.00;;;20.53;60.02
23131;BME280;11734;51.046;13.778;2022-09-24T09:13:38;71680.72;;;21.44;54.22
23131;BME280;11734;51.046;13.778;2022-09-24T09:16:25;71777.75;;;22.11;52.02
23131;BME280;11734;51.046;13.778;2022-09-24T09:18:59;71904.63;;;22.93;49.27
23131;BME280;11734;51.046;13.778;2022-09-24T09:21:43;71979.56;;;23.39;47.90
23131;BME280;11734;51.046;13.778;2022-09-24T09:24:17;72092.31;;;23.93;46.38
23131;BME280;11734;51.046;13.778;2022-09-24T09:26:50;71924.34;;;22.96;46.04
23131;BME280;11734;51.046;13.778;2022-09-24T09:29:24;71841.75;;;22.65;47.56
23131;BME280;11734;51.046;13.778;2022-09-24T09:32:01;71914.69;;;23.02;46.85
23131;BME280;11734;51.046;13.778;2022-09-24T09:37:13;71871.91;;;22.75;47.58
23131;BME280;11734;51.046;13.778;2022-09-24T09:40:15;71756.97;;;22.23;48.55
23131;BME280;11734;51.046;13.778;2022-09-24T09:43:02;71647.19;;;21.22;51.53
23131;BME280;11734;51.046;13.778;2022-09-24T09:45:36;71562.72;;;20.91;53.01
23131;BME280;11734;51.046;13.778;2022-09-24T09:48:08;71540.50;;;20.75;53.37
23131;BME280;11734;51.046;13.778;2022-09-24T09:50:45;71504.81;;;20.67;55.75
23131;BME280;11734;51.046;13.778;2022-09-24T09:53:22;71514.91;;;20.71;55.27
23131;BME280;11734;51.046;13.778;2022-09-24T09:55:56;71533.28;;;20.82;54.37
23131;BME280;11734;51.046;13.778;2022-09-24T09:58:26;71573.78;;;20.89;53.76
23131;BME280;11734;51.046;13.778;2022-09-24T10:01:09;71534.47;;;20.83;57.14
23131;BME280;11734;51.046;13.778;2022-09-24T10:08:50;71835.16;;;22.39;54.11
23131;BME280;11734;51.046;13.778;2022-09-24T10:11:18;71972.44;;;23.33;49.89
23131;BME280;11734;51.046;13.778;2022-09-24T10:14:02;72133.63;;;24.26;46.10
23131;BME280;11734;51.046;13.778;2022-09-24T10:16:34;72295.88;;;24.98;41.25
23131;BME280;11734;51.046;13.778;2022-09-24T10:19:02;72474.09;;;25.89;41.47
23131;BME280;11734;51.046;13.778;2022-09-24T10:21:34;72586.00;;;26.52;39.62
23131;BME280;11734;51.046;13.778;2022-09-24T10:24:11;72732.38;;;27.16;37.46
23131;BME280;11734;51.046;13.778;2022-09-24T10:26:44;72842.25;;;27.68;37.44
23131;BME280;11734;51.046;13.778;2022-09-24T10:29:30;72929.25;;;28.23;35.93
23131;BME280;11734;51.046;13.778;2022-09-24T10:32:25;73004.84;;;28.43;32.94
23131;BME280;11734;51.046;13.778;2022-09-24T10:35:17;72917.94;;;28.04;35.40
23131;BME280;11734;51.046;13.778;2022-09-24T10:37:56;72953.44;;;28.20;34.14
23131;BME280;11734;51.046;13.778;2022-09-24T10:40:27;73008.31;;;28.60;33.49
23131;BME280;11734;51.046;13.778;2022-09-24T10:42:59;73101.34;;;28.99;31.92
23131;BME280;11734;51.046;13.778;2022-09-24T10:46:34;72833.59;;;27.88;31.40
23131;BME280;11734;51.046;13.778;2022-09-24T10:48:27;72625.50;;;26.76;33.24
23131;BME280;11734;51.046;13.778;2022-09-24T10:53:50;72736.47;;;27.29;31.67
23131;BME280;11734;51.046;13.778;2022-09-24T10:56:42;72955.25;;;28.17;31.45
23131;BME280;11734;51.046;13.778;2022-09-24T11:04:58;73370.53;;;30.13;30.18
23131;BME280;11734;51.046;13.778;2022-09-24T11:24:40;73446.53;;;30.54;26.83
23131;BME280;11734;51.046;13.778;2022-09-24T11:30:12;73605.06;;;31.05;26.84
23131;BME280;11734;51.046;13.778;2022-09-24T11:57:53;73308.56;;;30.00;27.23
23131;BME280;11734;51.046;13.778;2022-09-24T12:00:33;73261.44;;;29.88;28.00
23131;BME280;11734;51.046;13.778;2022-09-24T12:06:12;72981.25;;;28.76;28.54
23131;BME280;11734;51.046;13.778;2022-09-24T12:08:53;72786.75;;;27.67;29.52
23131;BME280;11734;51.046;13.778;2022-09-24T12:11:39;72528.09;;;26.33;31.74
23131;BME280;11734;51.046;13.778;2022-09-24T12:14:25;72158.16;;;24.59;35.57
23131;BME280;11734;51.046;13.778;2022-09-24T12:17:00;72133.47;;;24.15;36.13
23131;BME280;11734;51.046;13.778;2022-09-24T12:19:49;71952.06;;;23.34;38.04
23131;BME280;11734;51.046;13.778;2022-09-24T12:22:20;71884.50;;;22.97;38.88
23131;BME280;11734;51.046;13.778;2022-09-24T12:24:53;71834.53;;;22.68;39.21
23131;BME280;11734;51.046;13.778;2022-09-24T12:27:43;71756.88;;;22.32;40.29
23131;BME280;11734;51.046;13.778;2022-09-24T12:33:54;71623.44;;;21.36;44.18
23131;BME280;11734;51.046;13.778;2022-09-24T12:39:31;71576.53;;;21.10;46.35
23131;BME280;11734;51.046;13.778;2022-09-24T12:42:05;71581.78;;;21.24;46.13
23131;BME280;11734;51.046;13.778;2022-09-24T12:44:47;71613.13;;;21.50;46.35
23131;BME280;11734;51.046;13.778;2022-09-24T12:47:23;71683.66;;;21.76;45.75
23131;BME280;11734;51.046;13.778;2022-09-24T12:49:59;71692.13;;;21.90;45.40
23131;BME280;11734;51.046;13.778;2022-09-24T12:52:32;71638.06;;;21.62;45.00
23131;BME280;11734;51.046;13.778;2022-09-24T12:55:03;71742.28;;;21.71;44.25
23131;BME280;11734;51.046;13.778;2022-09-24T12:57:39;71656.50;;;21.69;44.12
23131;BME280;11734;51.046;13.778;2022-09-24T13:03:00;71558.06;;;21.08;45.14
23131;BME280;11734;51.046;13.778;2022-09-24T13:11:00;71574.16;;;21.12;48.31
23131;BME280;11734;51.046;13.778;2022-09-24T13:13:36;71552.06;;;21.12;47.51
23131;BME280;11734;51.046;13.778;2022-09-24T13:16:25;71477.09;;;20.64;47.55
23131;BME280;11734;51.046;13.778;2022-09-24T13:18:58;71500.66;;;20.63;47.34
23131;BME280;11734;51.046;13.778;2022-09-24T13:21:28;71522.53;;;20.82;46.30
23131;BME280;11734;51.046;13.778;2022-09-24T13:23:56;71543.91;;;20.91;45.13
23131;BME280;11734;51.046;13.778;2022-09-24T13:26:26;71527.69;;;21.00;44.76
23131;BME280;11734;51.046;13.778;2022-09-24T13:28:56;71561.47;;;21.25;45.54
23131;BME280;11734;51.046;13.778;2022-09-24T13:39:36;71598.97;;;21.34;46.54
23131;BME280;11734;51.046;13.778;2022-09-24T13:44:37;71609.22;;;21.29;45.88
23131;BME280;11734;51.046;13.778;2022-09-24T13:47:42;71595.88;;;21.45;47.17
23131;BME280;11734;51.046;13.778;2022-09-24T13:53:07;71601.13;;;21.54;43.92
23131;BME280;11734;51.046;13.778;2022-09-24T13:55:48;71646.56;;;21.51;42.48
23131;BME280;11734;51.046;13.778;2022-09-24T13:58:36;71606.13;;;21.35;43.49
23131;BME280;11734;51.046;13.778;2022-09-24T14:01:12;71605.63;;;21.26;45.81
23131;BME280;11734;51.046;13.778;2022-09-24T14:03:52;71605.88;;;21.33;45.27
23131;BME280;11734;51.046;13.778;2022-09-24T14:06:31;71589.94;;;21.40;44.77
23131;BME280;11734;51.046;13.778;2022-09-24T14:08:59;71636.50;;;21.43;44.79
23131;BME280;11734;51.046;13.778;2022-09-24T14:11:27;71590.88;;;21.38;44.51
23131;BME280;11734;51.046;13.778;2022-09-24T14:13:55;71582.28;;;21.33;44.86
23131;BME280;11734;51.046;13.778;2022-09-24T14:16:27;71571.72;;;21.15;42.88
23131;BME280;11734;51.046;13.778;2022-09-24T14:19:05;71516.47;;;20.91;42.98
23131;BME280;11734;51.046;13.778;2022-09-24T14:21:33;71494.50;;;20.81;44.25
23131;BME280;11734;51.046;13.778;2022-09-24T14:24:32;71503.56;;;20.70;42.43
23131;BME280;11734;51.046;13.778;2022-09-24T14:27:01;71462.53;;;20.58;44.08
23131;BME280;11734;51.046;13.778;2022-09-24T14:29:39;71493.53;;;20.62;45.45
23131;BME280;11734;51.046;13.778;2022-09-24T14:32:22;71454.66;;;20.70;46.53
23131;BME280;11734;51.046;13.778;2022-09-24T14:34:52;71499.97;;;20.72;44.32
23131;BME280;11734;51.046;13.778;2022-09-24T14:37:26;71473.81;;;20.63;44.10
23131;BME280;11734;51.046;13.778;2022-09-24T14:40:02;71473.28;;;20.58;43.55
23131;BME280;11734;51.046;13.778;2022-09-24T14:42:52;71402.47;;;20.44;43.91
23131;BME280;11734;51.046;13.778;2022-09-24T14:45:27;71413.19;;;20.44;44.39
23131;BME280;11734;51.046;13.778;2022-09-24T14:48:04;71467.44;;;20.49;44.33
23131;BME280;11734;51.046;13.778;2022-09-24T14:50:39;71448.94;;;20.47;44.02
23131;BME280;11734;51.046;13.778;2022-09-24T14:53:29;71460.28;;;20.47;44.45
23131;BME280;11734;51.046;13.778;2022-09-24T14:55:59;71400.13;;;20.42;45.64
23131;BME280;11734;51.046;13.778;2022-09-24T15:00:58;71414.50;;;20.36;46.15
23131;BME280;11734;51.046;13.778;2022-09-24T15:06:17;71405.06;;;20.23;48.90
23131;BME280;11734;51.046;13.778;2022-09-24T15:11:42;71390.03;;;20.08;50.70
23131;BME280;11734;51.046;13.778;2022-09-24T15:16:46;71366.34;;;19.97;51.83
23131;BME280;11734;51.046;13.778;2022-09-24T15:19:25;71331.53;;;19.92;52.08